createdAt,value
2018-07-30T00:00:55.925Z,70.13
2018-07-30T00:03:24.414Z,71.02
2018-07-30T00:05:52.768Z,70.63
2018-07-30T00:08:21.082Z,69.92
2018-07-30T00:10:49.401Z,69.88
2018-07-30T00:13:17.823Z,69.80
2018-07-30T00:15:46.149Z,70.10
2018-07-30T00:18:14.603Z,70.89
2018-07-30T00:20:42.962Z,71.46
2018-07-30T00:23:11.294Z,70.97
2018-07-30T00:25:39.594Z,70.54
2018-07-30T00:28:07.936Z,70.70
2018-07-30T00:30:36.313Z,70.25
2018-07-30T00:33:04.715Z,70.51
2018-07-30T00:35:32.994Z,70.99
2018-07-30T00:38:01.315Z,71.52
2018-07-30T00:40:29.652Z,71.95
2018-07-30T00:42:57.966Z,72.33
2018-07-30T00:45:26.558Z,72.52
2018-07-30T00:47:54.855Z,72.55
2018-07-30T00:50:23.230Z,72.21
2018-07-30T00:52:51.539Z,72.69
2018-07-30T00:55:19.934Z,72.09
2018-07-30T00:57:48.233Z,72.84
2018-07-30T01:00:16.675Z,72.98
2018-07-30T01:02:44.999Z,73.52
2018-07-30T01:05:13.298Z,74.49
2018-07-30T01:07:41.699Z,74.42
2018-07-30T01:10:10.077Z,74.44
2018-07-30T01:12:38.471Z,73.63
2018-07-30T01:15:06.854Z,73.03
2018-07-30T01:17:35.186Z,73.21
2018-07-30T01:20:03.546Z,73.10
2018-07-30T01:22:31.838Z,73.89
2018-07-30T01:25:00.153Z,74.20
2018-07-30T01:27:28.459Z,74.82
2018-07-30T01:29:56.782Z,73.87
2018-07-30T01:32:25.230Z,73.74
2018-07-30T01:34:53.543Z,73.89
2018-07-30T01:37:21.866Z,74.45
2018-07-30T01:39:51.102Z,74.56
2018-07-30T01:42:19.484Z,74.48
2018-07-30T01:44:47.769Z,75.52
2018-07-30T01:47:16.108Z,75.15
2018-07-30T01:49:44.467Z,74.92
2018-07-30T01:52:12.766Z,74.57
2018-07-30T01:54:41.194Z,74.30
2018-07-30T01:57:09.522Z,75.67
2018-07-30T01:59:37.876Z,75.14
2018-07-30T02:02:06.255Z,75.26
2018-07-30T02:04:34.773Z,77.15
2018-07-30T02:07:03.235Z,78.02
2018-07-30T02:09:31.603Z,77.67
2018-07-30T02:12:00.031Z,76.67
2018-07-30T02:14:28.319Z,76.18
2018-07-30T02:16:56.686Z,76.09
2018-07-30T02:19:25.082Z,74.99
2018-07-30T02:21:53.458Z,76.68
2018-07-30T02:24:21.758Z,76.86
2018-07-30T02:26:50.080Z,76.93
2018-07-30T02:29:18.386Z,77.89
2018-07-30T02:31:46.817Z,77.79
2018-07-30T02:34:15.173Z,77.71
2018-07-30T02:36:43.525Z,77.62
2018-07-30T02:39:13.630Z,77.58
2018-07-30T02:41:42.346Z,76.49
2018-07-30T02:44:10.759Z,77.21
2018-07-30T02:46:39.328Z,76.58
2018-07-30T02:49:08.468Z,77.38
2018-07-30T02:51:36.829Z,78.07
2018-07-30T02:54:05.274Z,77.92
2018-07-30T02:56:33.679Z,77.19
2018-07-30T02:59:01.962Z,77.05
2018-07-30T03:01:30.333Z,76.01
2018-07-30T03:03:58.679Z,76.91
2018-07-30T03:06:26.977Z,77.10
2018-07-30T03:08:55.289Z,78.13
2018-07-30T03:11:23.683Z,78.44
2018-07-30T03:13:52.024Z,77.98
2018-07-30T03:16:20.402Z,77.60
2018-07-30T03:18:48.691Z,77.76
2018-07-30T03:21:17.043Z,78.40
2018-07-30T03:23:45.369Z,78.46
2018-07-30T03:26:13.708Z,78.51
2018-07-30T03:28:42.302Z,78.79
2018-07-30T03:31:10.566Z,79.62
2018-07-30T03:33:38.875Z,78.96
2018-07-30T03:36:07.286Z,79.10
2018-07-30T03:38:35.723Z,78.35
2018-07-30T03:41:04.189Z,79.13
2018-07-30T03:43:32.492Z,78.58
2018-07-30T03:46:02.085Z,78.01
2018-07-30T03:48:31.197Z,77.46
2018-07-30T03:50:59.610Z,76.86
2018-07-30T03:53:28.993Z,77.49
2018-07-30T03:55:57.310Z,77.33
2018-07-30T03:58:25.732Z,77.04
2018-07-30T04:00:54.035Z,78.14
2018-07-30T04:03:23.328Z,78.69
2018-07-30T04:05:57.172Z,78.36
2018-07-30T04:08:30.099Z,77.15
2018-07-30T04:10:58.600Z,76.02
2018-07-30T04:13:28.405Z,76.11
2018-07-30T04:15:57.781Z,76.58
2018-07-30T04:18:27.657Z,77.25
2018-07-30T04:20:56.027Z,77.79
2018-07-30T04:23:24.957Z,78.15
2018-07-30T04:25:53.885Z,78.02
2018-07-30T04:28:28.393Z,77.24
2018-07-30T04:31:11.301Z,76.10
2018-07-30T04:33:50.901Z,75.82
2018-07-30T04:39:02.986Z,75.01
2018-07-30T04:41:33.857Z,75.21
2018-07-30T04:44:05.893Z,74.66
2018-07-30T04:46:36.473Z,75.17
2018-07-30T04:49:05.025Z,74.52
2018-07-30T04:51:34.636Z,74.46
2018-07-30T04:54:08.833Z,74.57
2018-07-30T04:56:37.203Z,75.42
2018-07-30T04:59:05.676Z,75.99
2018-07-30T05:01:34.639Z,75.83
2018-07-30T05:04:03.889Z,75.62
2018-07-30T05:06:32.842Z,75.79
2018-07-30T05:09:03.523Z,75.82
2018-07-30T05:11:33.669Z,75.32
2018-07-30T05:14:01.945Z,74.26
2018-07-30T05:16:30.272Z,73.37
2018-07-30T05:19:00.357Z,73.60
2018-07-30T05:21:30.171Z,73.22
2018-07-30T05:23:59.551Z,72.89
2018-07-30T05:26:28.464Z,72.19
2018-07-30T05:28:58.747Z,72.01
2018-07-30T05:31:28.085Z,72.08
2018-07-30T05:33:57.988Z,72.14
2018-07-30T05:36:26.312Z,70.90
2018-07-30T05:38:55.224Z,71.67
2018-07-30T05:41:23.591Z,70.76
2018-07-30T05:43:52.468Z,70.48
2018-07-30T05:46:20.964Z,71.08
2018-07-30T05:48:50.585Z,70.42
2018-07-30T05:51:20.098Z,70.37
2018-07-30T05:53:48.478Z,69.66
2018-07-30T05:56:17.441Z,70.46
2018-07-30T05:58:45.756Z,69.93
2018-07-30T06:01:14.916Z,69.07
2018-07-30T06:03:43.258Z,67.83
2018-07-30T06:06:11.713Z,67.24
2018-07-30T06:08:40.013Z,66.71
2018-07-30T06:11:08.437Z,66.58
2018-07-30T06:13:38.364Z,65.92
2018-07-30T06:16:07.733Z,66.03
2018-07-30T06:18:36.892Z,65.93
2018-07-30T06:21:05.700Z,65.08
2018-07-30T06:23:34.253Z,64.83
2018-07-30T06:26:04.083Z,64.57
2018-07-30T06:28:32.376Z,63.01
2018-07-30T06:31:01.509Z,63.57
2018-07-30T06:33:30.371Z,63.02
2018-07-30T06:36:02.853Z,62.26
2018-07-30T06:38:31.463Z,61.94
2018-07-30T06:40:59.775Z,62.24
2018-07-30T06:43:30.600Z,60.30
2018-07-30T06:49:07.438Z,59.58
2018-07-30T06:51:42.533Z,57.81
2018-07-30T06:54:11.706Z,58.36
2018-07-30T06:56:41.584Z,57.22
2018-07-30T06:59:10.438Z,56.34
2018-07-30T07:01:42.320Z,55.54
2018-07-30T07:04:12.248Z,54.82
2018-07-30T07:06:40.650Z,54.83
2018-07-30T07:09:10.369Z,54.39
2018-07-30T07:11:39.242Z,54.89
2018-07-30T07:14:09.153Z,54.32
2018-07-30T07:16:37.761Z,53.37
2018-07-30T07:19:06.056Z,53.98
2018-07-30T07:21:35.364Z,51.70
2018-07-30T07:24:03.662Z,51.53
2018-07-30T07:26:33.174Z,51.62
2018-07-30T07:29:01.566Z,51.74
2018-07-30T07:31:29.962Z,49.11
2018-07-30T07:33:58.404Z,49.77
2018-07-30T07:36:27.025Z,50.34
2018-07-30T07:38:55.408Z,50.55
2018-07-30T07:41:23.685Z,48.47
2018-07-30T07:43:52.714Z,49.37
2018-07-30T07:46:22.993Z,48.66
2018-07-30T07:48:52.120Z,47.56
2018-07-30T07:51:20.694Z,49.93
2018-07-30T07:53:50.114Z,49.15
2018-07-30T07:56:18.564Z,48.03
2018-07-30T07:58:49.742Z,48.03
2018-07-30T08:01:18.690Z,48.63
2018-07-30T08:03:47.493Z,48.30
2018-07-30T08:06:15.973Z,48.89
2018-07-30T08:08:47.083Z,48.60
2018-07-30T08:11:16.012Z,47.50
2018-07-30T08:13:45.040Z,47.47
2018-07-30T08:16:13.561Z,46.56
2018-07-30T08:18:42.802Z,46.01
2018-07-30T08:21:12.510Z,45.42
2018-07-30T08:23:42.245Z,44.40
2018-07-30T08:26:10.908Z,43.75
2018-07-30T08:28:40.448Z,45.05
2018-07-30T08:31:10.221Z,42.62
2018-07-30T08:33:41.106Z,43.79
2018-07-30T08:36:09.661Z,43.62
2018-07-30T08:38:40.239Z,43.66
2018-07-30T08:41:08.872Z,41.84
2018-07-30T08:43:37.552Z,42.54
2018-07-30T08:46:06.167Z,42.79
2018-07-30T08:48:36.752Z,42.43
2018-07-30T08:51:06.088Z,42.20
2018-07-30T08:53:35.600Z,42.57
2018-07-30T08:56:05.400Z,41.71
2018-07-30T08:58:34.565Z,40.57
2018-07-30T09:01:05.046Z,40.01
2018-07-30T09:03:33.921Z,40.31
2018-07-30T09:06:02.480Z,40.81
2018-07-30T09:08:31.023Z,40.71
2018-07-30T09:10:59.465Z,40.64
2018-07-30T09:13:28.034Z,39.68
2018-07-30T09:15:57.503Z,40.15
2018-07-30T09:18:26.735Z,40.64
2018-07-30T09:20:55.582Z,39.54
2018-07-30T09:23:25.522Z,39.80
2018-07-30T09:25:54.861Z,39.18
2018-07-30T09:28:23.571Z,38.63
2018-07-30T09:30:52.066Z,38.69
2018-07-30T09:33:20.429Z,38.10
2018-07-30T09:35:48.818Z,38.92
2018-07-30T09:38:17.615Z,38.03
2018-07-30T09:40:46.014Z,35.69
2018-07-30T09:43:15.449Z,35.82
2018-07-30T09:45:44.043Z,37.11
2018-07-30T09:48:12.396Z,37.86
2018-07-30T09:50:40.748Z,36.23
2018-07-30T09:53:09.054Z,36.67
2018-07-30T09:55:37.493Z,37.16
2018-07-30T09:58:06.094Z,37.17
2018-07-30T10:00:39.575Z,35.11
2018-07-30T10:03:07.887Z,36.79
2018-07-30T10:05:36.234Z,36.35
2018-07-30T10:08:04.624Z,35.43
2018-07-30T10:10:32.911Z,36.65
2018-07-30T10:13:01.197Z,36.22
2018-07-30T10:15:29.534Z,35.17
2018-07-30T10:17:57.982Z,34.18
2018-07-30T10:20:26.214Z,35.64
2018-07-30T10:22:54.493Z,36.01
2018-07-30T10:25:22.955Z,35.28
2018-07-30T10:27:51.454Z,33.70
2018-07-30T10:30:19.815Z,35.11
2018-07-30T10:32:48.167Z,35.21
2018-07-30T10:35:16.515Z,34.63
2018-07-30T10:37:44.899Z,35.71
2018-07-30T10:40:13.325Z,34.56
2018-07-30T10:42:41.666Z,35.15
2018-07-30T10:45:10.042Z,35.50
2018-07-30T10:47:38.392Z,34.24
2018-07-30T10:50:06.766Z,33.37
2018-07-30T10:52:35.163Z,33.90
2018-07-30T10:55:03.532Z,34.61
2018-07-30T10:57:32.181Z,32.22
2018-07-30T11:00:00.635Z,32.56
2018-07-30T11:02:28.919Z,32.55
2018-07-30T11:04:57.735Z,33.53
2018-07-30T11:07:26.059Z,33.98
2018-07-30T11:09:54.728Z,33.34
2018-07-30T11:12:23.063Z,32.37
2018-07-30T11:14:51.436Z,32.64
2018-07-30T11:17:19.783Z,33.26
2018-07-30T11:19:48.203Z,32.26
2018-07-30T11:22:16.568Z,30.63
2018-07-30T11:24:44.924Z,32.05
2018-07-30T11:27:13.229Z,33.08
2018-07-30T11:29:41.749Z,32.95
2018-07-30T11:32:10.114Z,32.43
2018-07-30T11:34:38.484Z,32.98
2018-07-30T11:37:06.797Z,31.67
2018-07-30T11:39:35.193Z,32.26
2018-07-30T11:42:03.562Z,33.17
2018-07-30T11:44:31.988Z,31.17
2018-07-30T11:47:00.428Z,31.35
2018-07-30T11:49:28.764Z,32.26
2018-07-30T11:51:57.070Z,31.38
2018-07-30T11:54:25.483Z,31.10
2018-07-30T11:56:53.826Z,30.08
2018-07-30T11:59:22.146Z,29.54
2018-07-30T12:01:50.498Z,30.86
2018-07-30T12:04:18.861Z,29.57
2018-07-30T12:06:47.164Z,28.59
2018-07-30T12:09:15.564Z,30.58
2018-07-30T12:11:43.917Z,30.98
2018-07-30T12:14:12.261Z,30.33
2018-07-30T12:16:40.631Z,27.76
2018-07-30T12:19:08.990Z,28.67
2018-07-30T12:21:37.376Z,29.44
2018-07-30T12:24:05.839Z,28.36
2018-07-30T12:26:34.357Z,29.01
2018-07-30T12:29:02.675Z,29.64
2018-07-30T12:31:31.126Z,29.21
2018-07-30T12:33:59.449Z,28.68
2018-07-30T12:36:27.908Z,29.92
2018-07-30T12:38:56.215Z,29.49
2018-07-30T12:41:24.630Z,30.37
2018-07-30T12:43:53.064Z,29.29
2018-07-30T12:46:21.439Z,29.80
2018-07-30T12:48:49.829Z,29.88
2018-07-30T12:51:18.199Z,30.32
2018-07-30T12:53:46.484Z,29.81
2018-07-30T12:56:14.827Z,30.72
2018-07-30T12:58:43.155Z,29.79
2018-07-30T13:01:11.628Z,28.94
2018-07-30T13:03:39.972Z,29.62
2018-07-30T13:06:08.349Z,29.74
2018-07-30T13:08:36.743Z,29.90
2018-07-30T13:11:05.090Z,30.25
2018-07-30T13:13:33.418Z,30.31
2018-07-30T13:16:01.722Z,30.31
2018-07-30T13:18:30.049Z,30.25
2018-07-30T13:20:58.442Z,28.53
2018-07-30T13:23:26.744Z,29.23
2018-07-30T13:25:55.168Z,29.34
2018-07-30T13:28:23.526Z,27.71
2018-07-30T13:30:51.878Z,29.74
2018-07-30T13:33:20.390Z,30.00
2018-07-30T13:35:48.710Z,30.61
2018-07-30T13:38:17.036Z,29.79
2018-07-30T13:40:45.391Z,30.15
2018-07-30T13:43:13.809Z,28.67
2018-07-30T13:45:42.127Z,27.80
2018-07-30T13:48:10.458Z,28.82
2018-07-30T13:50:38.834Z,28.57
2018-07-30T13:53:07.156Z,28.10
2018-07-30T13:55:35.525Z,26.85
2018-07-30T13:58:03.924Z,27.33
2018-07-30T14:00:32.227Z,28.44
2018-07-30T14:03:00.591Z,27.45
2018-07-30T14:05:28.965Z,27.58
2018-07-30T14:07:57.312Z,27.33
2018-07-30T14:10:25.657Z,26.72
2018-07-30T14:12:54.092Z,29.02
2018-07-30T14:15:22.362Z,28.02
2018-07-30T14:17:50.760Z,28.60
2018-07-30T14:20:19.182Z,28.37
2018-07-30T14:22:47.477Z,27.97
2018-07-30T14:25:15.803Z,26.59
2018-07-30T14:27:44.154Z,27.20
2018-07-30T14:30:12.478Z,28.10
2018-07-30T14:32:40.824Z,28.60
2018-07-30T14:35:09.244Z,28.18
2018-07-30T14:37:37.587Z,29.35
2018-07-30T14:40:09.417Z,29.80
2018-07-30T14:42:37.858Z,28.07
2018-07-30T14:45:06.910Z,29.35
2018-07-30T14:47:35.247Z,28.11
2018-07-30T14:50:03.635Z,27.79
2018-07-30T14:52:31.982Z,28.60
2018-07-30T14:55:00.301Z,27.56
2018-07-30T14:57:28.781Z,27.91
2018-07-30T14:59:57.205Z,27.61
2018-07-30T15:02:25.509Z,27.07
2018-07-30T15:04:53.849Z,26.94
2018-07-30T15:07:22.255Z,27.57
2018-07-30T15:09:50.630Z,26.78
2018-07-30T15:12:19.021Z,28.48
2018-07-30T15:14:47.402Z,27.27
2018-07-30T15:17:15.742Z,26.81
2018-07-30T15:19:44.154Z,27.40
2018-07-30T15:22:12.476Z,26.22
2018-07-30T15:24:40.820Z,25.05
2018-07-30T15:27:09.182Z,25.31
2018-07-30T15:29:37.518Z,26.43
2018-07-30T15:32:05.986Z,26.63
2018-07-30T15:34:34.330Z,27.44
2018-07-30T15:37:02.718Z,26.06
2018-07-30T15:39:30.986Z,25.76
2018-07-30T15:41:59.362Z,26.54
2018-07-30T15:44:27.647Z,26.06
2018-07-30T15:46:55.963Z,25.39
2018-07-30T15:49:24.297Z,26.52
2018-07-30T15:51:52.629Z,26.25
2018-07-30T15:54:20.940Z,27.19
2018-07-30T15:56:49.317Z,25.27
2018-07-30T15:59:21.037Z,25.13
2018-07-30T16:01:50.127Z,25.68
2018-07-30T16:04:18.525Z,26.16
2018-07-30T16:06:50.839Z,26.26
2018-07-30T16:09:20.906Z,27.18
2018-07-30T16:11:49.667Z,27.16
2018-07-30T16:14:20.165Z,26.45
2018-07-30T16:16:50.536Z,27.60
2018-07-30T16:19:19.003Z,28.19
2018-07-30T16:21:48.449Z,27.80
2018-07-30T16:24:17.592Z,29.19
2018-07-30T16:26:48.310Z,28.56
2018-07-30T16:29:18.335Z,28.98
2018-07-30T16:31:48.224Z,28.95
2018-07-30T16:34:16.654Z,30.44
2018-07-30T16:36:45.628Z,29.25
2018-07-30T16:39:13.952Z,30.17
2018-07-30T16:41:42.867Z,30.88
2018-07-30T16:44:12.090Z,31.44
2018-07-30T16:46:42.201Z,31.85
2018-07-30T16:49:10.706Z,32.04
2018-07-30T16:51:39.225Z,32.42
2018-07-30T16:54:08.264Z,32.90
2018-07-30T16:56:37.181Z,32.73
2018-07-30T16:59:05.680Z,32.70
2018-07-30T17:01:34.110Z,31.57
2018-07-30T17:04:03.486Z,33.04
2018-07-30T17:06:32.677Z,32.28
2018-07-30T17:09:03.042Z,33.25
2018-07-30T17:11:32.110Z,33.59
2018-07-30T17:14:02.093Z,34.51
2018-07-30T17:16:31.261Z,34.58
2018-07-30T17:19:02.213Z,35.15
2018-07-30T17:21:30.922Z,35.49
2018-07-30T17:24:03.496Z,34.75
2018-07-30T17:26:34.079Z,35.95
2018-07-30T17:29:03.745Z,35.52
2018-07-30T17:31:33.693Z,36.93
2018-07-30T17:34:02.205Z,35.57
2018-07-30T17:36:31.549Z,36.41
2018-07-30T17:38:59.940Z,35.72
2018-07-30T17:41:28.545Z,35.77
2018-07-30T17:43:57.821Z,36.23
2018-07-30T17:46:26.222Z,35.67
2018-07-30T17:49:02.886Z,36.75
2018-07-30T17:51:32.302Z,37.21
2018-07-30T17:54:02.559Z,36.41
2018-07-30T17:56:31.281Z,36.78
2018-07-30T17:59:00.170Z,36.26
2018-07-30T18:01:31.248Z,36.61
2018-07-30T18:04:00.286Z,35.91
2018-07-30T18:06:28.620Z,35.94
2018-07-30T18:08:57.031Z,37.10
2018-07-30T18:11:25.997Z,36.82
2018-07-30T18:13:55.224Z,38.52
2018-07-30T18:16:25.854Z,38.87
2018-07-30T18:18:54.246Z,38.42
2018-07-30T18:21:22.868Z,38.68
2018-07-30T18:23:58.537Z,40.02
2018-07-30T18:29:50.190Z,39.43
2018-07-30T18:32:19.464Z,42.24
2018-07-30T18:34:51.110Z,42.18
2018-07-30T18:37:19.753Z,44.18
2018-07-30T18:39:48.325Z,44.81
2018-07-30T18:42:16.718Z,44.47
2018-07-30T18:44:45.111Z,42.69
2018-07-30T18:47:15.486Z,43.07
2018-07-30T18:49:44.870Z,44.07
2018-07-30T18:52:14.628Z,45.27
2018-07-30T18:54:43.089Z,44.99
2018-07-30T18:57:12.889Z,46.41
2018-07-30T18:59:44.358Z,48.08
2018-07-30T19:02:18.737Z,48.31
2018-07-30T19:05:01.695Z,46.74
2018-07-30T19:12:48.483Z,46.77
2018-07-30T19:15:18.581Z,48.53
2018-07-30T19:20:22.233Z,49.51
2018-07-30T19:23:20.718Z,49.08
2018-07-30T19:25:50.428Z,49.93
2018-07-30T19:28:19.891Z,49.52
2018-07-30T19:30:48.922Z,49.88
2018-07-30T19:33:30.075Z,49.53
2018-07-30T19:36:13.216Z,50.82
2018-07-30T19:38:48.838Z,50.11
2018-07-30T19:41:17.976Z,50.33
2018-07-30T19:43:47.395Z,51.80
2018-07-30T19:46:57.339Z,50.69
2018-07-30T19:49:50.045Z,52.17
2018-07-30T19:52:21.502Z,51.44
2018-07-30T19:56:26.605Z,51.48
2018-07-30T19:59:21.232Z,51.90
2018-07-30T20:01:49.678Z,53.47
2018-07-30T20:04:23.236Z,53.03
2018-07-30T20:12:46.182Z,53.15
2018-07-30T20:15:19.661Z,53.68
2018-07-30T20:17:48.838Z,54.33
2018-07-30T20:20:17.677Z,54.30
2018-07-30T20:22:47.722Z,54.32
2018-07-30T20:25:16.746Z,54.10
2018-07-30T20:27:45.240Z,53.55
2018-07-30T20:30:14.671Z,54.09
2018-07-30T20:32:45.725Z,55.06
2018-07-30T20:35:15.429Z,54.42
2018-07-30T20:40:52.132Z,54.70
2018-07-30T20:43:22.378Z,54.58
2018-07-30T20:45:55.732Z,55.18
2018-07-30T20:48:37.304Z,55.43
2018-07-30T20:51:06.432Z,56.12
2018-07-30T20:53:35.638Z,55.61
2018-07-30T21:01:58.061Z,56.04
2018-07-30T21:04:27.932Z,56.77
2018-07-30T21:06:57.010Z,56.41
2018-07-30T21:09:27.049Z,56.12
2018-07-30T21:11:56.670Z,56.04
2018-07-30T21:14:25.138Z,56.52
2018-07-30T21:16:55.047Z,57.56
2018-07-30T21:19:23.460Z,58.10
2018-07-30T21:21:52.588Z,57.61
2018-07-30T21:24:22.834Z,57.90
2018-07-30T21:26:53.877Z,57.97
2018-07-30T21:29:22.910Z,58.57
2018-07-30T21:31:52.796Z,58.48
2018-07-30T21:34:21.825Z,58.62
2018-07-30T21:36:51.169Z,58.82
2018-07-30T21:39:20.946Z,59.87
2018-07-30T21:41:49.446Z,59.79
2018-07-30T21:44:18.167Z,59.52
2018-07-30T21:46:46.581Z,59.41
2018-07-30T21:49:14.980Z,59.94
2018-07-30T21:51:43.360Z,60.60
2018-07-30T21:54:11.818Z,60.02
2018-07-30T21:56:42.245Z,60.69
2018-07-30T21:59:11.217Z,60.37
2018-07-30T22:01:39.882Z,59.99
2018-07-30T22:04:08.803Z,60.13
2018-07-30T22:06:37.290Z,61.14
2018-07-30T22:09:08.782Z,62.51
2018-07-30T22:11:37.461Z,63.40
2018-07-30T22:14:12.168Z,63.03
2018-07-30T22:16:40.533Z,62.60
2018-07-30T22:19:08.938Z,61.91
2018-07-30T22:21:37.270Z,61.43
2018-07-30T22:24:05.637Z,61.59
2018-07-30T22:26:34.006Z,63.50
2018-07-30T22:29:02.316Z,64.24
2018-07-30T22:31:30.588Z,63.33
2018-07-30T22:33:58.873Z,62.78
2018-07-30T22:36:27.151Z,62.72
2018-07-30T22:38:55.445Z,62.17
2018-07-30T22:41:23.733Z,62.73
2018-07-30T22:43:52.041Z,63.21
2018-07-30T22:46:20.440Z,63.40
2018-07-30T22:48:48.792Z,64.48
2018-07-30T22:51:17.139Z,64.35
2018-07-30T22:53:45.466Z,65.46
2018-07-30T22:56:13.777Z,64.52
2018-07-30T22:58:42.132Z,64.00
2018-07-30T23:01:10.479Z,63.89
2018-07-30T23:03:38.816Z,64.49
2018-07-30T23:06:07.226Z,64.64
2018-07-30T23:08:35.652Z,65.17
2018-07-30T23:11:04.009Z,64.51
2018-07-30T23:13:32.386Z,63.95
2018-07-30T23:16:00.731Z,65.00
2018-07-30T23:18:29.096Z,65.15
2018-07-30T23:20:57.356Z,65.34
2018-07-30T23:23:25.652Z,66.69
2018-07-30T23:25:53.942Z,67.71
2018-07-30T23:28:22.291Z,67.84
2018-07-30T23:30:50.809Z,67.62
2018-07-30T23:33:19.133Z,66.27
2018-07-30T23:35:47.405Z,66.13
2018-07-30T23:38:15.746Z,66.72
2018-07-30T23:40:44.010Z,66.67
2018-07-30T23:43:12.387Z,66.74
2018-07-30T23:45:40.673Z,67.11
2018-07-30T23:48:08.921Z,67.01
2018-07-30T23:50:37.193Z,66.92
2018-07-30T23:53:05.565Z,66.06
2018-07-30T23:55:33.797Z,67.05
2018-07-30T23:58:02.127Z,67.49
